sensor_id;sensor_type;location;lat;lon;timestamp;temperature;humidity
25640;DHT22;13497;48.322;16.204;2022-10-16T00:01:22;12.80;99.90
25640;DHT22;13497;48.322;16.204;2022-10-16T00:03:48;12.80;99.90
25640;DHT22;13497;48.322;16.204;2022-10-16T00:06:15;12.70;99.90
25640;DHT22;13497;48.322;16.204;2022-10-16T00:08:41;12.60;99.90
25640;DHT22;13497;48.322;16.204;2022-10-16T00:11:11;12.60;99.90
25640;DHT22;13497;48.322;16.204;2022-10-16T00:13:38;12.60;99.90
25640;DHT22;13497;48.322;16.204;2022-10-16T00:16:03;12.40;99.90
25640;DHT22;13497;48.322;16.204;2022-10-16T00:18:30;12.40;99.90
25640;DHT22;13497;48.322;16.204;2022-10-16T00:20:55;12.40;99.90
25640;DHT22;13497;48.322;16.204;2022-10-16T00:23:21;12.40;99.90
25640;DHT22;13497;48.322;16.204;2022-10-16T00:26:00;12.40;99.90
25640;DHT22;13497;48.322;16.204;2022-10-16T00:28:26;12.50;99.90
25640;DHT22;13497;48.322;16.204;2022-10-16T00:30:51;12.60;99.90
25640;DHT22;13497;48.322;16.204;2022-10-16T00:33:17;12.70;99.90
25640;DHT22;13497;48.322;16.204;2022-10-16T00:35:43;12.70;99.90
25640;DHT22;13497;48.322;16.204;2022-10-16T00:38:09;12.70;99.90
25640;DHT22;13497;48.322;16.204;2022-10-16T00:40:34;12.70;99.90
25640;DHT22;13497;48.322;16.204;2022-10-16T00:43:00;12.70;99.90
25640;DHT22;13497;48.322;16.204;2022-10-16T00:45:25;12.60;99.90
25640;DHT22;13497;48.322;16.204;2022-10-16T00:47:51;12.50;99.90
25640;DHT22;13497;48.322;16.204;2022-10-16T00:50:27;12.40;99.90
25640;DHT22;13497;48.322;16.204;2022-10-16T00:52:53;12.40;99.90
25640;DHT22;13497;48.322;16.204;2022-10-16T00:55:19;12.30;99.90
25640;DHT22;13497;48.322;16.204;2022-10-16T00:57:45;12.20;99.90
25640;DHT22;13497;48.322;16.204;2022-10-16T01:00:12;12.20;99.90
25640;DHT22;13497;48.322;16.204;2022-10-16T01:02:39;12.30;99.90
25640;DHT22;13497;48.322;16.204;2022-10-16T01:05:05;12.30;99.90
25640;DHT22;13497;48.322;16.204;2022-10-16T01:12:51;12.60;99.90
25640;DHT22;13497;48.322;16.204;2022-10-16T01:15:26;12.60;99.90
25640;DHT22;13497;48.322;16.204;2022-10-16T01:18:11;12.60;99.90
25640;DHT22;13497;48.322;16.204;2022-10-16T01:20:42;12.60;99.90
25640;DHT22;13497;48.322;16.204;2022-10-16T01:31:19;12.30;99.90
25640;DHT22;13497;48.322;16.204;2022-10-16T01:33:48;12.20;99.90
25640;DHT22;13497;48.322;16.204;2022-10-16T01:36:16;12.20;99.90
25640;DHT22;13497;48.322;16.204;2022-10-16T01:38:44;12.20;99.90
25640;DHT22;13497;48.322;16.204;2022-10-16T01:43:39;12.10;99.90
25640;DHT22;13497;48.322;16.204;2022-10-16T01:46:06;12.10;99.90
25640;DHT22;13497;48.322;16.204;2022-10-16T01:48:33;12.10;99.90
25640;DHT22;13497;48.322;16.204;2022-10-16T01:51:01;12.10;99.90
25640;DHT22;13497;48.322;16.204;2022-10-16T01:53:27;12.20;99.90
25640;DHT22;13497;48.322;16.204;2022-10-16T01:55:54;12.20;99.90
25640;DHT22;13497;48.322;16.204;2022-10-16T01:58:20;12.20;99.90
25640;DHT22;13497;48.322;16.204;2022-10-16T02:00:47;12.30;99.90
25640;DHT22;13497;48.322;16.204;2022-10-16T02:03:13;12.20;99.90
25640;DHT22;13497;48.322;16.204;2022-10-16T02:08:12;12.20;99.90
25640;DHT22;13497;48.322;16.204;2022-10-16T02:10:38;12.20;99.90
25640;DHT22;13497;48.322;16.204;2022-10-16T02:13:06;12.20;99.90
25640;DHT22;13497;48.322;16.204;2022-10-16T02:15:32;12.20;99.90
25640;DHT22;13497;48.322;16.204;2022-10-16T02:17:57;12.20;99.90
25640;DHT22;13497;48.322;16.204;2022-10-16T02:20:25;12.20;99.90
25640;DHT22;13497;48.322;16.204;2022-10-16T02:22:51;12.20;99.90
25640;DHT22;13497;48.322;16.204;2022-10-16T02:25:19;12.10;99.90
25640;DHT22;13497;48.322;16.204;2022-10-16T02:27:48;12.20;99.90
25640;DHT22;13497;48.322;16.204;2022-10-16T02:30:21;12.20;99.90
25640;DHT22;13497;48.322;16.204;2022-10-16T02:32:49;12.20;99.90
25640;DHT22;13497;48.322;16.204;2022-10-16T02:35:15;12.20;99.90
25640;DHT22;13497;48.322;16.204;2022-10-16T02:37:42;12.10;99.90
25640;DHT22;13497;48.322;16.204;2022-10-16T02:40:08;12.10;99.90
25640;DHT22;13497;48.322;16.204;2022-10-16T02:42:34;12.10;99.90
25640;DHT22;13497;48.322;16.204;2022-10-16T02:45:00;12.10;99.90
25640;DHT22;13497;48.322;16.204;2022-10-16T02:47:26;12.10;99.90
25640;DHT22;13497;48.322;16.204;2022-10-16T02:49:51;12.20;99.90
25640;DHT22;13497;48.322;16.204;2022-10-16T02:52:17;12.20;99.90
25640;DHT22;13497;48.322;16.204;2022-10-16T02:54:42;12.20;99.90
25640;DHT22;13497;48.322;16.204;2022-10-16T02:57:08;12.20;99.90
25640;DHT22;13497;48.322;16.204;2022-10-16T02:59:33;12.20;99.90
25640;DHT22;13497;48.322;16.204;2022-10-16T03:01:59;12.30;99.90
25640;DHT22;13497;48.322;16.204;2022-10-16T03:04:24;12.30;99.90
25640;DHT22;13497;48.322;16.204;2022-10-16T03:06:50;12.20;99.90
25640;DHT22;13497;48.322;16.204;2022-10-16T03:09:15;12.20;99.90
25640;DHT22;13497;48.322;16.204;2022-10-16T03:11:41;12.30;99.90
25640;DHT22;13497;48.322;16.204;2022-10-16T03:14:06;12.30;99.90
25640;DHT22;13497;48.322;16.204;2022-10-16T03:16:32;12.20;99.90
25640;DHT22;13497;48.322;16.204;2022-10-16T03:18:58;12.30;99.90
25640;DHT22;13497;48.322;16.204;2022-10-16T03:21:23;12.30;99.90
25640;DHT22;13497;48.322;16.204;2022-10-16T03:23:49;12.30;99.90
25640;DHT22;13497;48.322;16.204;2022-10-16T03:26:14;12.30;99.90
25640;DHT22;13497;48.322;16.204;2022-10-16T03:28:40;12.30;99.90
25640;DHT22;13497;48.322;16.204;2022-10-16T03:31:05;12.30;99.90
25640;DHT22;13497;48.322;16.204;2022-10-16T03:33:31;12.20;99.90
25640;DHT22;13497;48.322;16.204;2022-10-16T03:35:57;12.20;99.90
25640;DHT22;13497;48.322;16.204;2022-10-16T03:38:22;12.20;99.90
25640;DHT22;13497;48.322;16.204;2022-10-16T03:40:48;12.30;99.90
25640;DHT22;13497;48.322;16.204;2022-10-16T03:43:13;12.40;99.90
25640;DHT22;13497;48.322;16.204;2022-10-16T03:45:39;12.40;99.90
25640;DHT22;13497;48.322;16.204;2022-10-16T03:48:05;12.40;99.90
25640;DHT22;13497;48.322;16.204;2022-10-16T03:50:31;12.40;99.90
25640;DHT22;13497;48.322;16.204;2022-10-16T03:52:56;12.30;99.90
25640;DHT22;13497;48.322;16.204;2022-10-16T03:55:22;12.40;99.90
25640;DHT22;13497;48.322;16.204;2022-10-16T03:57:47;12.40;99.90
25640;DHT22;13497;48.322;16.204;2022-10-16T04:00:13;12.40;99.90
25640;DHT22;13497;48.322;16.204;2022-10-16T04:02:38;12.40;99.90
25640;DHT22;13497;48.322;16.204;2022-10-16T04:05:04;12.30;99.90
25640;DHT22;13497;48.322;16.204;2022-10-16T04:07:29;12.30;99.90
25640;DHT22;13497;48.322;16.204;2022-10-16T04:09:55;12.30;99.90
25640;DHT22;13497;48.322;16.204;2022-10-16T04:12:20;12.30;99.90
25640;DHT22;13497;48.322;16.204;2022-10-16T04:14:46;12.30;99.90
25640;DHT22;13497;48.322;16.204;2022-10-16T04:17:11;12.20;99.90
25640;DHT22;13497;48.322;16.204;2022-10-16T04:19:37;12.20;99.90
25640;DHT22;13497;48.322;16.204;2022-10-16T04:22:02;12.20;99.90
25640;DHT22;13497;48.322;16.204;2022-10-16T04:24:28;12.30;99.90
25640;DHT22;13497;48.322;16.204;2022-10-16T04:26:53;12.20;99.90
25640;DHT22;13497;48.322;16.204;2022-10-16T04:29:19;12.20;99.90
25640;DHT22;13497;48.322;16.204;2022-10-16T04:31:44;12.10;99.90
25640;DHT22;13497;48.322;16.204;2022-10-16T04:34:10;12.10;99.90
25640;DHT22;13497;48.322;16.204;2022-10-16T04:36:35;12.00;99.90
25640;DHT22;13497;48.322;16.204;2022-10-16T04:39:01;12.00;99.90
25640;DHT22;13497;48.322;16.204;2022-10-16T04:41:26;12.10;99.90
25640;DHT22;13497;48.322;16.204;2022-10-16T04:43:52;12.10;99.90
25640;DHT22;13497;48.322;16.204;2022-10-16T04:46:17;12.10;99.90
25640;DHT22;13497;48.322;16.204;2022-10-16T04:48:43;12.10;99.90
25640;DHT22;13497;48.322;16.204;2022-10-16T04:51:08;12.10;99.90
25640;DHT22;13497;48.322;16.204;2022-10-16T04:53:34;12.20;99.90
25640;DHT22;13497;48.322;16.204;2022-10-16T04:55:59;12.10;99.90
25640;DHT22;13497;48.322;16.204;2022-10-16T04:58:25;12.20;99.90
25640;DHT22;13497;48.322;16.204;2022-10-16T05:00:50;12.20;99.90
25640;DHT22;13497;48.322;16.204;2022-10-16T05:03:16;12.20;99.90
25640;DHT22;13497;48.322;16.204;2022-10-16T05:05:42;12.20;99.90
25640;DHT22;13497;48.322;16.204;2022-10-16T05:08:08;12.20;99.90
25640;DHT22;13497;48.322;16.204;2022-10-16T05:10:33;12.20;99.90
25640;DHT22;13497;48.322;16.204;2022-10-16T05:12:59;12.30;99.90
25640;DHT22;13497;48.322;16.204;2022-10-16T05:15:24;12.30;99.90
25640;DHT22;13497;48.322;16.204;2022-10-16T05:17:52;12.40;99.90
25640;DHT22;13497;48.322;16.204;2022-10-16T05:20:17;12.40;99.90
25640;DHT22;13497;48.322;16.204;2022-10-16T05:22:43;12.40;99.90
25640;DHT22;13497;48.322;16.204;2022-10-16T05:25:08;12.40;99.90
25640;DHT22;13497;48.322;16.204;2022-10-16T05:27:34;12.50;99.90
25640;DHT22;13497;48.322;16.204;2022-10-16T05:29:59;12.60;99.90
25640;DHT22;13497;48.322;16.204;2022-10-16T05:32:24;12.60;99.90
25640;DHT22;13497;48.322;16.204;2022-10-16T05:34:50;12.50;99.90
25640;DHT22;13497;48.322;16.204;2022-10-16T05:37:16;12.50;99.90
25640;DHT22;13497;48.322;16.204;2022-10-16T05:39:41;12.30;99.90
25640;DHT22;13497;48.322;16.204;2022-10-16T05:42:07;12.20;99.90
25640;DHT22;13497;48.322;16.204;2022-10-16T05:44:32;12.10;99.90
25640;DHT22;13497;48.322;16.204;2022-10-16T05:46:58;12.20;99.90
25640;DHT22;13497;48.322;16.204;2022-10-16T05:49:23;12.20;99.90
25640;DHT22;13497;48.322;16.204;2022-10-16T05:51:49;12.30;99.90
25640;DHT22;13497;48.322;16.204;2022-10-16T05:54:14;12.40;99.90
25640;DHT22;13497;48.322;16.204;2022-10-16T05:56:40;12.50;99.90
25640;DHT22;13497;48.322;16.204;2022-10-16T05:59:05;12.60;99.90
25640;DHT22;13497;48.322;16.204;2022-10-16T06:01:31;12.70;99.90
25640;DHT22;13497;48.322;16.204;2022-10-16T06:03:57;12.80;99.90
25640;DHT22;13497;48.322;16.204;2022-10-16T06:06:24;12.90;99.90
25640;DHT22;13497;48.322;16.204;2022-10-16T06:08:51;12.90;99.90
25640;DHT22;13497;48.322;16.204;2022-10-16T06:11:18;13.00;99.90
25640;DHT22;13497;48.322;16.204;2022-10-16T06:13:44;13.00;99.90
25640;DHT22;13497;48.322;16.204;2022-10-16T06:16:11;13.00;99.90
25640;DHT22;13497;48.322;16.204;2022-10-16T06:18:37;13.20;99.90
25640;DHT22;13497;48.322;16.204;2022-10-16T06:21:10;13.20;99.90
25640;DHT22;13497;48.322;16.204;2022-10-16T06:23:35;13.10;99.90
25640;DHT22;13497;48.322;16.204;2022-10-16T06:26:13;13.20;99.90
25640;DHT22;13497;48.322;16.204;2022-10-16T06:28:39;13.10;99.90
25640;DHT22;13497;48.322;16.204;2022-10-16T06:31:05;13.20;99.90
25640;DHT22;13497;48.322;16.204;2022-10-16T06:33:31;13.20;99.90
25640;DHT22;13497;48.322;16.204;2022-10-16T06:36:00;13.30;99.90
25640;DHT22;13497;48.322;16.204;2022-10-16T06:38:26;13.40;99.90
25640;DHT22;13497;48.322;16.204;2022-10-16T06:40:53;13.40;99.90
25640;DHT22;13497;48.322;16.204;2022-10-16T06:43:18;13.60;99.90
25640;DHT22;13497;48.322;16.204;2022-10-16T06:45:49;13.60;99.90
25640;DHT22;13497;48.322;16.204;2022-10-16T07:00:57;13.70;99.90
25640;DHT22;13497;48.322;16.204;2022-10-16T07:03:23;13.90;99.90
25640;DHT22;13497;48.322;16.204;2022-10-16T07:05:48;14.10;99.90
25640;DHT22;13497;48.322;16.204;2022-10-16T07:08:14;14.20;99.90
25640;DHT22;13497;48.322;16.204;2022-10-16T07:10:39;14.20;99.90
25640;DHT22;13497;48.322;16.204;2022-10-16T07:13:05;14.40;99.90
25640;DHT22;13497;48.322;16.204;2022-10-16T07:15:32;14.50;99.90
25640;DHT22;13497;48.322;16.204;2022-10-16T07:17:58;14.50;99.90
25640;DHT22;13497;48.322;16.204;2022-10-16T07:20:23;14.60;99.90
25640;DHT22;13497;48.322;16.204;2022-10-16T07:22:49;14.60;99.90
25640;DHT22;13497;48.322;16.204;2022-10-16T07:25:14;14.40;99.90
25640;DHT22;13497;48.322;16.204;2022-10-16T07:27:40;14.40;99.90
25640;DHT22;13497;48.322;16.204;2022-10-16T07:30:05;14.30;99.90
25640;DHT22;13497;48.322;16.204;2022-10-16T07:32:31;14.20;99.90
25640;DHT22;13497;48.322;16.204;2022-10-16T07:34:57;14.20;99.90
25640;DHT22;13497;48.322;16.204;2022-10-16T07:37:22;14.10;99.90
25640;DHT22;13497;48.322;16.204;2022-10-16T07:39:48;14.20;99.90
25640;DHT22;13497;48.322;16.204;2022-10-16T07:42:13;14.40;99.90
25640;DHT22;13497;48.322;16.204;2022-10-16T07:44:39;14.50;99.90
25640;DHT22;13497;48.322;16.204;2022-10-16T07:47:05;14.80;99.90
25640;DHT22;13497;48.322;16.204;2022-10-16T07:49:30;15.00;99.90
25640;DHT22;13497;48.322;16.204;2022-10-16T07:51:56;15.20;99.90
25640;DHT22;13497;48.322;16.204;2022-10-16T07:54:21;15.50;99.90
25640;DHT22;13497;48.322;16.204;2022-10-16T07:56:47;15.60;99.90
25640;DHT22;13497;48.322;16.204;2022-10-16T07:59:12;15.50;99.90
25640;DHT22;13497;48.322;16.204;2022-10-16T08:01:38;15.40;99.90
25640;DHT22;13497;48.322;16.204;2022-10-16T08:04:03;15.40;99.90
25640;DHT22;13497;48.322;16.204;2022-10-16T08:06:29;15.50;99.90
25640;DHT22;13497;48.322;16.204;2022-10-16T08:08:59;15.60;99.90
25640;DHT22;13497;48.322;16.204;2022-10-16T08:11:25;15.60;99.90
25640;DHT22;13497;48.322;16.204;2022-10-16T08:13:51;15.60;99.90
25640;DHT22;13497;48.322;16.204;2022-10-16T08:16:16;15.60;99.90
25640;DHT22;13497;48.322;16.204;2022-10-16T08:18:42;15.60;99.90
25640;DHT22;13497;48.322;16.204;2022-10-16T08:21:12;15.70;99.90
25640;DHT22;13497;48.322;16.204;2022-10-16T08:23:38;15.90;99.90
25640;DHT22;13497;48.322;16.204;2022-10-16T08:26:05;16.00;99.90
25640;DHT22;13497;48.322;16.204;2022-10-16T08:28:31;16.10;99.90
25640;DHT22;13497;48.322;16.204;2022-10-16T08:31:04;16.20;99.90
25640;DHT22;13497;48.322;16.204;2022-10-16T08:33:29;16.20;99.90
25640;DHT22;13497;48.322;16.204;2022-10-16T08:35:54;16.10;99.90
25640;DHT22;13497;48.322;16.204;2022-10-16T08:38:20;16.10;99.90
25640;DHT22;13497;48.322;16.204;2022-10-16T08:40:45;16.00;99.90
25640;DHT22;13497;48.322;16.204;2022-10-16T08:48:23;15.60;99.90
25640;DHT22;13497;48.322;16.204;2022-10-16T08:50:51;15.60;99.90
25640;DHT22;13497;48.322;16.204;2022-10-16T08:56:20;15.80;99.90
25640;DHT22;13497;48.322;16.204;2022-10-16T08:58:46;16.20;99.90
25640;DHT22;13497;48.322;16.204;2022-10-16T09:01:13;16.50;99.90
25640;DHT22;13497;48.322;16.204;2022-10-16T09:21:49;16.90;99.90
25640;DHT22;13497;48.322;16.204;2022-10-16T09:24:16;17.10;99.90
25640;DHT22;13497;48.322;16.204;2022-10-16T09:26:42;17.20;99.90
25640;DHT22;13497;48.322;16.204;2022-10-16T09:29:11;17.40;99.90
25640;DHT22;13497;48.322;16.204;2022-10-16T09:31:37;17.50;99.90
25640;DHT22;13497;48.322;16.204;2022-10-16T09:34:03;17.70;99.90
25640;DHT22;13497;48.322;16.204;2022-10-16T09:36:34;17.70;99.90
25640;DHT22;13497;48.322;16.204;2022-10-16T09:39:04;17.60;99.90
25640;DHT22;13497;48.322;16.204;2022-10-16T09:41:30;17.60;99.90
25640;DHT22;13497;48.322;16.204;2022-10-16T09:43:59;17.70;99.90
25640;DHT22;13497;48.322;16.204;2022-10-16T09:46:26;17.60;99.90
25640;DHT22;13497;48.322;16.204;2022-10-16T09:48:54;17.70;99.90
25640;DHT22;13497;48.322;16.204;2022-10-16T09:53:46;17.90;99.90
25640;DHT22;13497;48.322;16.204;2022-10-16T09:56:20;17.70;99.90
25640;DHT22;13497;48.322;16.204;2022-10-16T09:58:53;17.70;99.90
25640;DHT22;13497;48.322;16.204;2022-10-16T10:01:19;17.50;99.90
25640;DHT22;13497;48.322;16.204;2022-10-16T10:03:46;17.50;99.90
25640;DHT22;13497;48.322;16.204;2022-10-16T10:06:21;17.60;99.90
25640;DHT22;13497;48.322;16.204;2022-10-16T10:08:54;17.80;99.90
25640;DHT22;13497;48.322;16.204;2022-10-16T10:11:35;17.50;99.90
25640;DHT22;13497;48.322;16.204;2022-10-16T10:14:05;17.30;99.90
25640;DHT22;13497;48.322;16.204;2022-10-16T10:16:30;17.50;99.90
25640;DHT22;13497;48.322;16.204;2022-10-16T10:18:59;17.50;99.90
25640;DHT22;13497;48.322;16.204;2022-10-16T10:21:25;17.60;99.90
25640;DHT22;13497;48.322;16.204;2022-10-16T10:23:56;17.90;99.90
25640;DHT22;13497;48.322;16.204;2022-10-16T10:26:24;18.00;99.90
25640;DHT22;13497;48.322;16.204;2022-10-16T10:31:19;18.30;99.90
25640;DHT22;13497;48.322;16.204;2022-10-16T10:46:05;18.10;99.90
25640;DHT22;13497;48.322;16.204;2022-10-16T10:51:12;17.50;99.90
25640;DHT22;13497;48.322;16.204;2022-10-16T11:01:39;18.60;99.90
25640;DHT22;13497;48.322;16.204;2022-10-16T11:04:15;18.80;99.90
25640;DHT22;13497;48.322;16.204;2022-10-16T11:06:46;19.00;99.90
25640;DHT22;13497;48.322;16.204;2022-10-16T11:11:41;19.50;99.90
25640;DHT22;13497;48.322;16.204;2022-10-16T11:14:18;19.50;99.90
25640;DHT22;13497;48.322;16.204;2022-10-16T11:19:37;19.50;99.90
25640;DHT22;13497;48.322;16.204;2022-10-16T11:22:11;19.50;99.90
25640;DHT22;13497;48.322;16.204;2022-10-16T11:27:08;19.40;99.90
25640;DHT22;13497;48.322;16.204;2022-10-16T11:29:34;19.30;99.90
25640;DHT22;13497;48.322;16.204;2022-10-16T11:32:04;19.20;99.90
25640;DHT22;13497;48.322;16.204;2022-10-16T11:34:42;19.20;99.90
25640;DHT22;13497;48.322;16.204;2022-10-16T11:39:56;19.00;99.90
25640;DHT22;13497;48.322;16.204;2022-10-16T11:42:40;19.20;99.90
25640;DHT22;13497;48.322;16.204;2022-10-16T11:45:13;19.40;99.90
25640;DHT22;13497;48.322;16.204;2022-10-16T11:47:45;19.50;99.90
25640;DHT22;13497;48.322;16.204;2022-10-16T11:50:33;19.50;99.90
25640;DHT22;13497;48.322;16.204;2022-10-16T11:55:44;19.30;99.90
25640;DHT22;13497;48.322;16.204;2022-10-16T12:00:51;19.10;99.90
25640;DHT22;13497;48.322;16.204;2022-10-16T12:03:30;18.90;99.90
25640;DHT22;13497;48.322;16.204;2022-10-16T12:08:37;18.60;99.90
25640;DHT22;13497;48.322;16.204;2022-10-16T12:13:47;18.80;99.90
25640;DHT22;13497;48.322;16.204;2022-10-16T12:18:48;18.90;99.90
25640;DHT22;13497;48.322;16.204;2022-10-16T12:21:14;19.10;99.90
25640;DHT22;13497;48.322;16.204;2022-10-16T12:26:23;19.50;99.90
25640;DHT22;13497;48.322;16.204;2022-10-16T12:28:50;19.70;99.90
25640;DHT22;13497;48.322;16.204;2022-10-16T12:31:16;19.90;99.90
25640;DHT22;13497;48.322;16.204;2022-10-16T12:33:56;20.00;99.90
25640;DHT22;13497;48.322;16.204;2022-10-16T12:36:26;20.20;99.90
25640;DHT22;13497;48.322;16.204;2022-10-16T12:38:52;20.30;99.90
25640;DHT22;13497;48.322;16.204;2022-10-16T12:41:25;20.30;99.90
25640;DHT22;13497;48.322;16.204;2022-10-16T12:43:52;20.40;99.90
25640;DHT22;13497;48.322;16.204;2022-10-16T12:48:43;20.40;99.90
25640;DHT22;13497;48.322;16.204;2022-10-16T12:51:21;20.40;99.90
25640;DHT22;13497;48.322;16.204;2022-10-16T12:53:57;20.50;99.90
25640;DHT22;13497;48.322;16.204;2022-10-16T12:56:30;20.60;99.90
25640;DHT22;13497;48.322;16.204;2022-10-16T12:59:06;20.70;99.90
25640;DHT22;13497;48.322;16.204;2022-10-16T13:01:37;20.80;99.90
25640;DHT22;13497;48.322;16.204;2022-10-16T13:11:52;21.30;99.90
25640;DHT22;13497;48.322;16.204;2022-10-16T13:14:32;21.40;99.90
25640;DHT22;13497;48.322;16.204;2022-10-16T13:27:01;20.60;99.90
25640;DHT22;13497;48.322;16.204;2022-10-16T13:29:30;20.50;99.90
25640;DHT22;13497;48.322;16.204;2022-10-16T13:31:56;20.50;99.90
25640;DHT22;13497;48.322;16.204;2022-10-16T13:34:23;20.50;99.90
25640;DHT22;13497;48.322;16.204;2022-10-16T13:36:50;20.60;99.90
25640;DHT22;13497;48.322;16.204;2022-10-16T13:39:23;20.70;99.90
25640;DHT22;13497;48.322;16.204;2022-10-16T13:42:03;20.70;99.90
25640;DHT22;13497;48.322;16.204;2022-10-16T13:44:35;20.50;99.90
25640;DHT22;13497;48.322;16.204;2022-10-16T13:47:02;20.30;99.90
25640;DHT22;13497;48.322;16.204;2022-10-16T13:49:28;20.20;99.90
25640;DHT22;13497;48.322;16.204;2022-10-16T13:51:54;20.30;99.90
25640;DHT22;13497;48.322;16.204;2022-10-16T13:54:21;20.40;99.90
25640;DHT22;13497;48.322;16.204;2022-10-16T13:56:46;20.40;99.90
25640;DHT22;13497;48.322;16.204;2022-10-16T13:59:25;20.40;99.90
25640;DHT22;13497;48.322;16.204;2022-10-16T14:01:52;20.40;99.90
25640;DHT22;13497;48.322;16.204;2022-10-16T14:04:18;20.40;99.90
25640;DHT22;13497;48.322;16.204;2022-10-16T14:06:45;20.40;99.90
25640;DHT22;13497;48.322;16.204;2022-10-16T14:09:27;20.40;99.90
25640;DHT22;13497;48.322;16.204;2022-10-16T14:11:55;20.30;99.90
25640;DHT22;13497;48.322;16.204;2022-10-16T14:14:22;20.20;99.90
25640;DHT22;13497;48.322;16.204;2022-10-16T14:16:47;20.10;99.90
25640;DHT22;13497;48.322;16.204;2022-10-16T14:19:23;20.20;99.90
25640;DHT22;13497;48.322;16.204;2022-10-16T14:21:50;20.20;99.90
25640;DHT22;13497;48.322;16.204;2022-10-16T14:24:24;20.10;99.90
25640;DHT22;13497;48.322;16.204;2022-10-16T14:26:50;20.00;99.90
25640;DHT22;13497;48.322;16.204;2022-10-16T14:29:19;20.00;99.90
25640;DHT22;13497;48.322;16.204;2022-10-16T14:31:55;20.10;99.90
25640;DHT22;13497;48.322;16.204;2022-10-16T14:36:49;20.30;99.90
25640;DHT22;13497;48.322;16.204;2022-10-16T14:39:19;20.40;99.90
25640;DHT22;13497;48.322;16.204;2022-10-16T14:41:46;20.30;99.90
25640;DHT22;13497;48.322;16.204;2022-10-16T14:44:12;20.30;99.90
25640;DHT22;13497;48.322;16.204;2022-10-16T14:46:38;20.20;99.90
25640;DHT22;13497;48.322;16.204;2022-10-16T14:51:37;20.10;99.90
25640;DHT22;13497;48.322;16.204;2022-10-16T14:54:03;20.10;99.90
25640;DHT22;13497;48.322;16.204;2022-10-16T14:56:29;20.10;99.90
25640;DHT22;13497;48.322;16.204;2022-10-16T14:58:55;20.10;99.90
25640;DHT22;13497;48.322;16.204;2022-10-16T15:01:21;20.00;99.90
25640;DHT22;13497;48.322;16.204;2022-10-16T15:03:46;20.00;99.90
25640;DHT22;13497;48.322;16.204;2022-10-16T15:06:13;20.00;99.90
25640;DHT22;13497;48.322;16.204;2022-10-16T15:08:39;20.00;99.90
25640;DHT22;13497;48.322;16.204;2022-10-16T15:11:04;19.90;99.90
25640;DHT22;13497;48.322;16.204;2022-10-16T15:13:30;19.90;99.90
25640;DHT22;13497;48.322;16.204;2022-10-16T15:15:55;19.80;99.90
25640;DHT22;13497;48.322;16.204;2022-10-16T15:18:21;19.70;99.90
25640;DHT22;13497;48.322;16.204;2022-10-16T15:20:50;19.60;99.90
25640;DHT22;13497;48.322;16.204;2022-10-16T15:23:20;19.50;99.90
25640;DHT22;13497;48.322;16.204;2022-10-16T15:28:12;19.30;99.90
25640;DHT22;13497;48.322;16.204;2022-10-16T15:30:38;19.20;99.90
25640;DHT22;13497;48.322;16.204;2022-10-16T15:33:04;19.10;99.90
25640;DHT22;13497;48.322;16.204;2022-10-16T15:35:30;19.10;99.90
25640;DHT22;13497;48.322;16.204;2022-10-16T15:37:55;19.00;99.90
25640;DHT22;13497;48.322;16.204;2022-10-16T15:40:21;19.00;99.90
25640;DHT22;13497;48.322;16.204;2022-10-16T15:42:48;18.90;99.90
25640;DHT22;13497;48.322;16.204;2022-10-16T15:45:13;18.80;99.90
25640;DHT22;13497;48.322;16.204;2022-10-16T15:47:40;18.70;99.90
25640;DHT22;13497;48.322;16.204;2022-10-16T15:50:06;18.70;99.90
25640;DHT22;13497;48.322;16.204;2022-10-16T15:52:32;18.60;99.90
25640;DHT22;13497;48.322;16.204;2022-10-16T15:54:58;18.50;99.90
25640;DHT22;13497;48.322;16.204;2022-10-16T15:57:23;18.40;99.90
25640;DHT22;13497;48.322;16.204;2022-10-16T15:59:49;18.40;99.90
25640;DHT22;13497;48.322;16.204;2022-10-16T16:02:15;18.30;99.90
25640;DHT22;13497;48.322;16.204;2022-10-16T16:04:41;18.30;99.90
25640;DHT22;13497;48.322;16.204;2022-10-16T16:07:06;18.20;99.90
25640;DHT22;13497;48.322;16.204;2022-10-16T16:09:35;18.20;99.90
25640;DHT22;13497;48.322;16.204;2022-10-16T16:12:00;18.20;99.90
25640;DHT22;13497;48.322;16.204;2022-10-16T16:14:26;18.20;99.90
25640;DHT22;13497;48.322;16.204;2022-10-16T16:16:53;18.20;99.90
25640;DHT22;13497;48.322;16.204;2022-10-16T16:19:19;18.10;99.90
25640;DHT22;13497;48.322;16.204;2022-10-16T16:21:46;18.10;99.90
25640;DHT22;13497;48.322;16.204;2022-10-16T16:24:12;18.10;99.90
25640;DHT22;13497;48.322;16.204;2022-10-16T16:26:37;18.00;99.90
25640;DHT22;13497;48.322;16.204;2022-10-16T16:29:05;18.00;99.90
25640;DHT22;13497;48.322;16.204;2022-10-16T16:31:31;18.00;99.90
25640;DHT22;13497;48.322;16.204;2022-10-16T16:33:57;18.00;99.90
25640;DHT22;13497;48.322;16.204;2022-10-16T16:36:23;17.90;99.90
25640;DHT22;13497;48.322;16.204;2022-10-16T16:38:48;17.90;99.90
25640;DHT22;13497;48.322;16.204;2022-10-16T16:41:18;17.90;99.90
25640;DHT22;13497;48.322;16.204;2022-10-16T16:43:44;17.80;99.90
25640;DHT22;13497;48.322;16.204;2022-10-16T16:46:12;17.70;99.90
25640;DHT22;13497;48.322;16.204;2022-10-16T16:48:37;17.70;99.90
25640;DHT22;13497;48.322;16.204;2022-10-16T16:51:07;17.70;99.90
25640;DHT22;13497;48.322;16.204;2022-10-16T16:53:33;17.70;99.90
25640;DHT22;13497;48.322;16.204;2022-10-16T16:56:05;17.70;99.90
25640;DHT22;13497;48.322;16.204;2022-10-16T16:58:31;17.70;99.90
25640;DHT22;13497;48.322;16.204;2022-10-16T17:00:57;17.70;99.90
25640;DHT22;13497;48.322;16.204;2022-10-16T17:03:29;17.70;99.90
25640;DHT22;13497;48.322;16.204;2022-10-16T17:05:56;17.70;99.90
25640;DHT22;13497;48.322;16.204;2022-10-16T17:08:21;17.70;99.90
25640;DHT22;13497;48.322;16.204;2022-10-16T17:10:47;17.70;99.90
25640;DHT22;13497;48.322;16.204;2022-10-16T17:13:18;17.70;99.90
25640;DHT22;13497;48.322;16.204;2022-10-16T17:15:46;17.70;99.90
25640;DHT22;13497;48.322;16.204;2022-10-16T17:18:12;17.70;99.90
25640;DHT22;13497;48.322;16.204;2022-10-16T17:20:38;17.70;99.90
25640;DHT22;13497;48.322;16.204;2022-10-16T17:23:04;17.70;99.90
25640;DHT22;13497;48.322;16.204;2022-10-16T17:25:29;17.70;99.90
25640;DHT22;13497;48.322;16.204;2022-10-16T17:27:55;17.60;99.90
25640;DHT22;13497;48.322;16.204;2022-10-16T17:30:21;17.70;99.90
25640;DHT22;13497;48.322;16.204;2022-10-16T17:32:48;17.70;99.90
25640;DHT22;13497;48.322;16.204;2022-10-16T17:35:13;17.70;99.90